Dupont, CO (80024)

1:46 PM MDT on August 30, 2015 (GMT -0600)
Derby | | Change Station
CLOSE
Current Station
Personal Weather Station
Location: Commerce City, CO
Elevation: 5138 ft
Nearby Weather Stations

Elev 5138 ft 39.84 °N, 104.92 °W | Updated 43 seconds ago

Clear
Clear
92.6 °F
Feels Like 88 °F
N
1.0
Wind Variable Wind from WNW
Gusts 7.0 mph

Today
High -- | Low -- °F
--% Chance of Precip.
Yesterday
High -- | Low -- °F
Precip. -- in
6:25 AM 7:34 PM
Full, 98% visible
Pressure 30.10 in
Visibility 50.0 miles
Clouds Scattered Clouds 15000 ft
Heat Index 88 °F
Dew Point 38 °F
Humidity 15%
Rainfall 0.00 in
Snow Depth Not available.
UV 8 out of 12
Pollen 10.60 out of 12
Air Quality Not available.
Flu Activity Not available.
METAR KBJC 301845Z 08006KT 50SM FU SCT150 34/02 A3010
Pressure 30.10 in
Visibility 50.0 miles
Clouds Scattered Clouds 15000 ft
Heat Index 88 °F
Dew Point 38 °F
Humidity 15%
Rainfall 0.00 in
Snow Depth Not available.
UV 8 out of 12
Pollen 10.60 out of 12
Air Quality Not available.
Flu Activity Not available.
METAR KBJC 301845Z 08006KT 50SM FU SCT150 34/02 A3010

10-Day Weather Forecast

×

Almanac

Astronomy

Aug. 30, 2015 Rise Set
Actual Time
Civil Twilight
Nautical Twilight
Astronomical Twilight
Moon
Length of Visible Light
Length of Day
Tomorrow will be .
, % of the Moon is Illuminated

Today's Extremes

State Highs State Lows

Community

WunderPhotos

Upload Photos

1,851,041 photos uploaded!

WunderBlogs® & News

Nearby

Air Quality

  Air Quality AQ Index Pollutant
Not available.

Snow Depth

Station Depth Elevation

Earthquake Activity

City Distance Mag. Time & Date
Minimum magnitude displayed is 2.5.

Coastal Water Temperatures

Place Temperature

Stations

Nearby Weather Stations

Station Location Temp. Windchill Dew Point Humidity Wind Precip. Elev Updated Type